الصفحة الرئيسية
صور الأقمار الصناعية توقعات الطقس لمدة 15 يوممناخالتوقعات البحرية إعصار برق مطارأسئلة وأجوبة النشرة الإخبارية حول
طقس : أوروبا أفريقيا أمريكا الشمالية أمريكا الجنوبية آسيا أستراليا-أوقيانوسيا آخرون
لغات جهة اتصال

مدينة همدان, إيران

دائرة عرض: 34-52-05N, خط طول: 048-33-08E, ارتفاع: 1757 m


METAR: OIHH 191300Z 00000KT 9999 FEW040 SCT090 BKN190 06/01 Q1021
TAF: فقد

زمن: 03:33 (00:03 UTC)

مراقبة الطقس الحالي

تاريخ و وقت الإصدار 11 ساعات و 3 دقيقة قبل الساعة 13:00 UTC
الرياح هادئة
درجة الحرارة 6°C
الرطوبة 70%
ضغط 1021 hPa
الرؤية 10 كم أو أكثر
غيوم متفرقة على ارتفاع 4000 ft
غيوم متفرقة على ارتفاع 9000 ft
غيوم مفككة على ارتفاع 19000 ft

تغيير وحدة
المعلومات الواردة في هذا الموقع يخضع إخلاء
طقس : أوروبا أفريقيا أمريكا الشمالية أمريكا الجنوبية آسيا أستراليا-أوقيانوسيا آخرون
صور الأقمار الصناعية توقعات الطقس لمدة 15 يوممناخالتوقعات البحرية إعصار برق مطارأسئلة وأجوبة لغات جهة اتصال النشرة الإخبارية حول